Time;durP1;ratioP1;P1;durP2;ratioP2;P2;SDS_P1;SDS_P2;PMS_P1;PMS_P2;Temp;Humidity;BMP_temperature;BMP_pressure;BME280_temperature;BME280_humidity;BME280_pressure;Samples;Min_cycle;Max_cycle;Signal;HPM_P1;HPM_P2
2023/09/08 00:00:40;;;;;;;10.60;8.80;;;20.50;99.90;;;;;;5034302;28;20029;-73
2023/09/08 00:03:06;;;;;;;13.57;8.38;;;20.40;99.90;;;;;;5034380;28;20072;-73
2023/09/08 00:05:31;;;;;;;13.93;8.73;;;20.40;99.90;;;;;;5034063;28;20045;-73
2023/09/08 00:07:57;;;;;;;10.90;8.40;;;20.40;99.90;;;;;;5034049;28;20033;-73
2023/09/08 00:10:23;;;;;;;11.30;7.93;;;20.40;99.90;;;;;;5016188;28;20056;-73
2023/09/08 00:12:49;;;;;;;15.75;9.32;;;20.40;99.90;;;;;;5034249;28;20049;-73
2023/09/08 00:15:14;;;;;;;12.32;8.50;;;20.30;99.90;;;;;;5034010;28;20052;-73
2023/09/08 00:17:40;;;;;;;14.88;9.30;;;20.30;99.90;;;;;;5016415;28;20176;-73
2023/09/08 00:20:09;;;;;;;9.80;8.63;;;20.20;99.90;;;;;;5015989;28;20456;-73
2023/09/08 00:22:36;;;;;;;9.27;7.57;;;20.20;99.90;;;;;;5033781;28;20417;-73
2023/09/08 00:25:02;;;;;;;9.20;8.25;;;20.20;99.90;;;;;;5033994;28;20083;-73
2023/09/08 00:27:27;;;;;;;12.98;8.70;;;20.10;99.90;;;;;;5033887;28;20045;-73
2023/09/08 00:29:53;;;;;;;11.05;8.05;;;20.00;99.90;;;;;;5016214;28;20049;-73
2023/09/08 00:32:18;;;;;;;9.35;7.78;;;20.00;99.90;;;;;;5033864;28;20497;-73
2023/09/08 00:34:44;;;;;;;13.27;8.93;;;20.00;99.90;;;;;;5033573;28;20041;-73
2023/09/08 00:37:10;;;;;;;10.63;8.82;;;19.90;99.90;;;;;;5016047;28;20412;-73
2023/09/08 00:39:38;;;;;;;15.25;9.18;;;19.90;99.90;;;;;;5033501;28;20087;-73
2023/09/08 00:42:04;;;;;;;11.68;8.25;;;19.90;99.90;;;;;;5033135;28;20034;-73
2023/09/08 00:44:30;;;;;;;9.93;8.23;;;19.80;99.90;;;;;;5033506;28;20033;-73
2023/09/08 00:46:56;;;;;;;11.13;7.75;;;19.80;99.90;;;;;;5015799;28;20417;-73
2023/09/08 00:49:22;;;;;;;16.60;9.77;;;19.70;99.90;;;;;;5033051;28;20037;-73
2023/09/08 00:51:47;;;;;;;13.13;9.02;;;19.60;99.90;;;;;;5032741;28;20044;-73
2023/09/08 00:54:14;;;;;;;13.48;9.23;;;19.70;99.90;;;;;;5033216;28;20060;-73
2023/09/08 00:56:40;;;;;;;13.35;8.77;;;19.70;99.90;;;;;;5033090;28;20163;-73
2023/09/08 00:59:07;;;;;;;18.30;9.45;;;19.60;99.90;;;;;;5032794;28;20273;-73
2023/09/08 01:01:34;;;;;;;23.52;10.98;;;19.60;99.90;;;;;;5033228;28;20045;-73
2023/09/08 01:04:00;;;;;;;15.20;9.23;;;19.60;99.90;;;;;;5015629;28;20041;-73
2023/09/08 01:06:27;;;;;;;17.05;10.52;;;19.60;99.90;;;;;;5032552;28;20045;-73
2023/09/08 01:08:54;;;;;;;22.88;12.07;;;19.60;99.90;;;;;;5032849;28;20116;-73
2023/09/08 01:11:22;;;;;;;20.73;12.35;;;19.60;99.90;;;;;;4999085;28;20042;-73
2023/09/08 01:13:47;;;;;;;19.13;11.90;;;19.60;99.90;;;;;;5015437;28;20041;-73
2023/09/08 01:16:13;;;;;;;23.42;10.85;;;19.60;99.90;;;;;;5032726;28;20545;-73
2023/09/08 01:18:39;;;;;;;15.68;10.70;;;19.50;99.90;;;;;;5014995;28;20140;-73
2023/09/08 01:21:19;;;;;;;19.83;11.93;;;19.50;99.90;;;;;;5015180;28;20033;-73
2023/09/08 01:23:59;;;;;;;14.85;11.32;;;19.50;99.90;;;;;;5032922;28;20091;-73
2023/09/08 01:26:29;;;;;;;29.55;17.77;;;19.50;99.90;;;;;;5032526;28;20440;-73
2023/09/08 01:28:55;;;;;;;16.95;11.13;;;19.50;99.90;;;;;;5014746;28;20493;-73
2023/09/08 01:31:21;;;;;;;16.17;10.23;;;19.40;99.90;;;;;;5032634;28;20038;-73
2023/09/08 01:33:47;;;;;;;16.45;10.55;;;19.50;99.90;;;;;;5032793;28;20045;-73
2023/09/08 01:36:14;;;;;;;14.10;9.43;;;19.40;99.90;;;;;;5014703;28;20091;-73
2023/09/08 01:38:39;;;;;;;16.63;10.32;;;19.30;99.90;;;;;;4998517;28;20292;-73
2023/09/08 01:41:05;;;;;;;19.98;10.20;;;19.40;99.90;;;;;;5032131;28;20560;-73
2023/09/08 01:43:31;;;;;;;19.65;15.00;;;19.30;99.90;;;;;;5032424;28;20404;-73
2023/09/08 01:45:56;;;;;;;20.67;11.43;;;19.30;99.90;;;;;;5014417;28;20037;-73
2023/09/08 01:48:22;;;;;;;18.25;10.98;;;19.30;99.90;;;;;;5014505;28;20114;-73
2023/09/08 01:50:47;;;;;;;18.23;11.73;;;19.30;99.90;;;;;;5032294;28;20041;-73
2023/09/08 01:53:13;;;;;;;18.83;12.43;;;19.20;99.90;;;;;;5031457;28;20116;-73
2023/09/08 01:55:38;;;;;;;15.68;11.20;;;19.20;99.90;;;;;;5032067;28;20049;-73
2023/09/08 01:58:04;;;;;;;14.45;10.30;;;19.20;99.90;;;;;;5014383;28;20086;-73
2023/09/08 02:00:30;;;;;;;18.58;11.85;;;19.10;99.90;;;;;;5031689;28;20112;-73
2023/09/08 02:02:55;;;;;;;20.15;12.05;;;19.20;99.90;;;;;;5032051;28;20034;-73
2023/09/08 02:05:21;;;;;;;18.13;11.77;;;19.10;99.90;;;;;;5032003;28;20052;-73
2023/09/08 02:07:46;;;;;;;15.32;10.65;;;19.20;99.90;;;;;;5031930;28;20037;-73
2023/09/08 02:10:12;;;;;;;16.48;10.75;;;19.10;99.90;;;;;;5032031;28;20045;-73
2023/09/08 02:12:37;;;;;;;18.40;12.07;;;19.10;99.90;;;;;;5014570;28;20052;-72
2023/09/08 02:15:04;;;;;;;13.52;10.52;;;19.00;99.90;;;;;;5031685;28;20523;-73
2023/09/08 02:17:30;;;;;;;15.43;11.35;;;19.10;99.90;;;;;;5014042;28;20049;-73
2023/09/08 02:19:56;;;;;;;15.00;10.95;;;19.10;99.90;;;;;;5013951;28;20041;-73
2023/09/08 02:22:21;;;;;;;19.48;12.82;;;19.00;99.90;;;;;;5014151;28;20068;-73
2023/09/08 02:24:47;;;;;;;25.42;15.38;;;19.00;99.90;;;;;;5031652;28;20401;-73
2023/09/08 02:27:12;;;;;;;22.45;12.88;;;19.00;99.90;;;;;;5013941;28;20042;-73
2023/09/08 02:29:38;;;;;;;15.82;11.18;;;18.90;99.90;;;;;;5013693;28;20037;-73
2023/09/08 02:32:04;;;;;;;19.38;11.55;;;19.00;99.90;;;;;;5031844;28;20108;-73
2023/09/08 02:34:30;;;;;;;19.48;12.13;;;18.90;99.90;;;;;;5031803;28;20072;-73
2023/09/08 02:36:55;;;;;;;32.30;18.02;;;18.80;99.90;;;;;;5031499;28;20033;-73
2023/09/08 02:39:23;;;;;;;26.35;15.45;;;18.80;99.90;;;;;;5013682;28;20458;-73
2023/09/08 02:41:48;;;;;;;24.15;13.73;;;18.80;99.90;;;;;;5013789;28;20124;-73
2023/09/08 02:44:14;;;;;;;18.88;11.27;;;18.80;99.90;;;;;;5014061;28;20125;-73
2023/09/08 02:46:39;;;;;;;21.60;13.38;;;18.70;99.90;;;;;;5013921;28;20045;-73
2023/09/08 02:49:06;;;;;;;31.40;17.48;;;18.70;99.90;;;;;;5031407;28;20033;-73
2023/09/08 02:51:31;;;;;;;20.15;12.70;;;18.70;99.90;;;;;;5031512;28;20053;-73
2023/09/08 02:53:57;;;;;;;18.83;11.73;;;18.70;99.90;;;;;;5031530;28;20033;-73
2023/09/08 02:56:22;;;;;;;17.30;11.60;;;18.60;99.90;;;;;;5031298;28;20046;-73
2023/09/08 02:58:48;;;;;;;24.52;13.43;;;18.60;99.90;;;;;;5013384;28;20143;-73
2023/09/08 03:01:15;;;;;;;35.15;19.48;;;18.60;99.90;;;;;;5031301;28;20030;-73
2023/09/08 03:03:42;;;;;;;37.67;22.38;;;18.60;99.90;;;;;;5032048;28;20056;-73
2023/09/08 03:06:09;;;;;;;39.00;22.15;;;18.60;99.90;;;;;;5035005;28;20468;-73
2023/09/08 03:08:36;;;;;;;27.17;16.23;;;18.50;99.90;;;;;;5035359;28;20041;-73
2023/09/08 03:11:02;;;;;;;21.65;11.82;;;18.50;99.90;;;;;;5017427;28;20120;-73
2023/09/08 03:13:29;;;;;;;22.75;15.93;;;18.50;99.90;;;;;;5035057;28;20041;-73
2023/09/08 03:15:55;;;;;;;31.35;18.10;;;18.50;99.90;;;;;;5017304;28;20048;-73
2023/09/08 03:18:21;;;;;;;30.45;16.60;;;18.40;99.90;;;;;;5017555;28;20048;-73
2023/09/08 03:20:50;;;;;;;22.38;12.95;;;18.40;99.90;;;;;;5017158;28;20041;-73
2023/09/08 03:23:16;;;;;;;28.60;15.52;;;18.40;99.90;;;;;;5035078;28;20029;-73
2023/09/08 03:25:42;;;;;;;24.50;14.18;;;18.40;99.90;;;;;;5034796;28;20412;-73
2023/09/08 03:28:08;;;;;;;24.63;13.75;;;18.50;99.90;;;;;;5034772;28;20045;-73
2023/09/08 03:30:33;;;;;;;39.33;20.52;;;18.40;99.90;;;;;;5034866;28;20504;-73
2023/09/08 03:32:59;;;;;;;20.05;13.40;;;18.40;99.90;;;;;;5034989;28;20038;-73
2023/09/08 03:35:24;;;;;;;21.50;14.02;;;18.40;99.90;;;;;;5034610;28;20049;-73
2023/09/08 03:37:50;;;;;;;23.92;14.27;;;18.40;99.90;;;;;;5034712;28;20043;-73
2023/09/08 03:40:15;;;;;;;16.88;11.57;;;18.40;99.90;;;;;;5034600;28;20133;-73
2023/09/08 03:42:42;;;;;;;16.33;11.35;;;18.30;99.90;;;;;;5034806;28;20053;-73
2023/09/08 03:45:08;;;;;;;15.07;11.63;;;18.30;99.90;;;;;;5017061;28;20038;-73
2023/09/08 03:47:33;;;;;;;19.30;12.13;;;18.30;99.90;;;;;;5034583;28;20523;-73
2023/09/08 03:49:59;;;;;;;20.10;11.40;;;18.30;99.90;;;;;;5016629;28;20049;-73
2023/09/08 03:52:26;;;;;;;18.98;11.27;;;18.30;99.90;;;;;;5034442;28;20037;-73
2023/09/08 03:54:51;;;;;;;18.23;11.63;;;18.20;99.90;;;;;;5034300;28;20046;-72
2023/09/08 03:57:17;;;;;;;18.45;12.70;;;18.20;99.90;;;;;;5034278;28;20034;-73
2023/09/08 03:59:42;;;;;;;19.42;11.70;;;18.20;99.90;;;;;;5034229;28;20037;-73
2023/09/08 04:02:08;;;;;;;45.08;22.95;;;18.30;99.90;;;;;;5034422;28;20405;-73
2023/09/08 04:04:34;;;;;;;40.65;21.02;;;18.20;99.90;;;;;;5034156;28;20145;-73
2023/09/08 04:06:59;;;;;;;26.40;15.13;;;18.20;99.90;;;;;;5016638;28;20039;-73
2023/09/08 04:09:25;;;;;;;34.15;20.90;;;18.20;99.90;;;;;;5033935;28;20067;-73
2023/09/08 04:11:50;;;;;;;24.55;14.50;;;18.10;99.90;;;;;;5034053;28;20115;-73
2023/09/08 04:14:16;;;;;;;20.15;14.15;;;18.10;99.90;;;;;;5034279;28;20124;-73
2023/09/08 04:16:41;;;;;;;20.08;12.07;;;18.10;99.90;;;;;;5032981;28;20176;-73
2023/09/08 04:19:07;;;;;;;21.38;12.80;;;18.10;99.90;;;;;;5016013;28;20038;-73
2023/09/08 04:21:33;;;;;;;15.80;12.10;;;18.10;99.90;;;;;;5033887;28;20060;-73
2023/09/08 04:23:58;;;;;;;21.75;13.75;;;18.10;99.90;;;;;;5033963;28;20035;-73
2023/09/08 04:26:24;;;;;;;27.67;15.23;;;18.10;99.90;;;;;;5033695;28;20079;-73
2023/09/08 04:28:49;;;;;;;27.38;17.42;;;18.10;99.90;;;;;;5033800;28;20042;-73
2023/09/08 04:31:16;;;;;;;22.77;15.55;;;18.00;99.90;;;;;;5033733;28;20124;-73
2023/09/08 04:33:42;;;;;;;23.77;14.55;;;17.90;99.90;;;;;;5015934;28;20531;-73
2023/09/08 04:36:07;;;;;;;18.80;12.15;;;17.80;99.90;;;;;;5033549;28;20045;-73
2023/09/08 04:38:33;;;;;;;13.93;10.88;;;17.80;99.90;;;;;;5015976;28;20551;-73
2023/09/08 04:40:58;;;;;;;15.80;11.27;;;17.80;99.90;;;;;;5033335;28;20041;-73
2023/09/08 04:43:24;;;;;;;17.73;12.25;;;17.80;99.90;;;;;;5033463;28;20041;-72
2023/09/08 04:45:50;;;;;;;17.65;12.52;;;17.80;99.90;;;;;;5033483;28;20041;-72
2023/09/08 04:48:16;;;;;;;18.50;12.73;;;17.80;99.90;;;;;;5015447;28;20128;-72
2023/09/08 04:50:41;;;;;;;19.48;11.55;;;17.80;99.90;;;;;;5032809;28;20128;-72
2023/09/08 04:53:07;;;;;;;17.08;12.75;;;17.80;99.90;;;;;;5015497;28;20082;-72
2023/09/08 04:55:32;;;;;;;15.35;12.35;;;17.80;99.90;;;;;;5032936;28;20467;-72
2023/09/08 04:57:58;;;;;;;24.73;14.20;;;17.80;99.90;;;;;;5033044;28;20120;-74
2023/09/08 05:00:23;;;;;;;16.90;11.95;;;17.80;99.90;;;;;;5033028;28;20033;-73
2023/09/08 05:02:49;;;;;;;18.60;12.18;;;17.70;99.90;;;;;;5033162;28;20029;-73
2023/09/08 05:05:15;;;;;;;19.23;12.85;;;17.80;99.90;;;;;;5032974;28;20089;-73
2023/09/08 05:07:40;;;;;;;18.48;12.52;;;17.80;99.90;;;;;;5033052;28;20057;-73
2023/09/08 05:10:06;;;;;;;19.00;13.23;;;17.70;99.90;;;;;;5032785;28;20037;-73
2023/09/08 05:12:32;;;;;;;19.58;12.93;;;17.60;99.90;;;;;;5032902;28;20045;-73
2023/09/08 05:15:05;;;;;;;19.02;13.02;;;17.60;99.90;;;;;;5032949;28;20044;-73
2023/09/08 05:17:31;;;;;;;15.40;11.45;;;17.50;99.90;;;;;;5033018;28;20117;-73
2023/09/08 05:19:57;;;;;;;19.15;12.15;;;17.50;99.90;;;;;;5032728;28;20080;-73
2023/09/08 05:22:22;;;;;;;18.80;12.88;;;17.50;99.90;;;;;;5032877;28;20072;-73
2023/09/08 05:24:48;;;;;;;15.68;11.20;;;17.50;99.90;;;;;;5032880;28;20502;-73
2023/09/08 05:27:13;;;;;;;14.85;11.35;;;17.50;99.90;;;;;;5032742;28;20033;-73
2023/09/08 05:29:39;;;;;;;17.25;11.82;;;17.60;99.90;;;;;;5032456;28;20044;-73
2023/09/08 05:32:04;;;;;;;15.65;10.85;;;17.50;99.90;;;;;;5014848;28;20098;-73
2023/09/08 05:34:30;;;;;;;13.65;10.82;;;17.60;99.90;;;;;;5032643;28;20033;-73
2023/09/08 05:36:55;;;;;;;16.23;11.32;;;17.60;99.90;;;;;;5032339;28;20492;-73
2023/09/08 05:39:21;;;;;;;13.50;10.95;;;17.70;99.90;;;;;;5032135;28;20520;-73
2023/09/08 05:41:46;;;;;;;14.65;11.40;;;17.80;99.90;;;;;;5032660;28;20038;-73
2023/09/08 05:44:12;;;;;;;13.38;11.02;;;17.80;99.90;;;;;;5032560;28;20056;-73
2023/09/08 05:46:38;;;;;;;14.80;10.82;;;17.90;99.90;;;;;;5014645;28;20620;-73
2023/09/08 05:49:04;;;;;;;17.20;10.70;;;17.90;99.90;;;;;;5032162;28;20421;-73
2023/09/08 05:51:30;;;;;;;22.33;12.05;;;18.00;99.90;;;;;;5032309;28;20068;-73
2023/09/08 05:53:56;;;;;;;14.70;11.68;;;18.00;99.90;;;;;;5014444;28;20053;-73
2023/09/08 05:56:26;;;;;;;24.23;17.27;;;18.10;99.90;;;;;;5032242;28;20037;-73
2023/09/08 05:58:52;;;;;;;27.10;17.02;;;18.10;99.90;;;;;;5031894;28;20493;-73
2023/09/08 06:01:17;;;;;;;14.65;12.43;;;18.10;99.90;;;;;;5032045;28;20523;-73
2023/09/08 06:03:43;;;;;;;15.15;10.93;;;18.20;99.90;;;;;;5032144;28;20029;-73
2023/09/08 06:06:09;;;;;;;19.67;11.43;;;18.30;99.90;;;;;;5031823;28;20464;-73
2023/09/08 06:08:34;;;;;;;15.30;11.05;;;18.50;99.90;;;;;;5031779;28;20045;-73
2023/09/08 06:11:00;;;;;;;12.60;10.52;;;18.60;99.90;;;;;;5031835;28;20409;-73
2023/09/08 06:13:25;;;;;;;13.23;10.60;;;18.90;99.90;;;;;;5014432;28;20497;-73
2023/09/08 06:15:51;;;;;;;14.30;10.77;;;19.10;99.90;;;;;;5031804;28;20052;-73
2023/09/08 06:18:16;;;;;;;15.20;11.60;;;19.20;99.90;;;;;;5031778;28;20493;-73
2023/09/08 06:20:48;;;;;;;12.18;10.20;;;19.40;99.90;;;;;;5031720;28;20520;-73
2023/09/08 06:23:14;;;;;;;14.32;10.98;;;19.70;99.90;;;;;;5032021;28;20037;-73
2023/09/08 06:25:40;;;;;;;14.93;10.00;;;19.80;99.90;;;;;;5031824;28;20056;-73
2023/09/08 06:28:06;;;;;;;13.32;10.00;;;20.00;99.90;;;;;;5031747;28;20124;-73
2023/09/08 06:30:32;;;;;;;14.75;9.98;;;20.20;99.90;;;;;;5031527;28;20083;-73
2023/09/08 06:32:57;;;;;;;13.40;10.32;;;20.50;99.90;;;;;;5031696;28;20501;-73
2023/09/08 06:35:23;;;;;;;12.10;9.77;;;20.60;99.90;;;;;;5013653;28;20049;-73
2023/09/08 06:37:48;;;;;;;16.02;9.98;;;20.70;99.90;;;;;;5031722;28;20043;-73
2023/09/08 06:40:14;;;;;;;12.60;9.95;;;20.90;99.90;;;;;;5031095;28;20171;-73
2023/09/08 06:42:39;;;;;;;13.52;10.40;;;21.00;99.90;;;;;;5031527;28;20073;-73
2023/09/08 06:45:06;;;;;;;11.95;9.93;;;21.10;99.90;;;;;;5031575;28;20038;-73
2023/09/08 06:47:31;;;;;;;13.50;10.68;;;21.10;99.90;;;;;;5031452;28;20583;-73
2023/09/08 06:49:57;;;;;;;14.35;11.45;;;21.20;99.90;;;;;;5013849;28;20073;-73
2023/09/08 06:52:22;;;;;;;15.00;10.85;;;21.30;99.90;;;;;;5014061;28;20042;-73
2023/09/08 06:54:48;;;;;;;15.48;10.52;;;21.60;99.90;;;;;;5031635;28;20128;-73
2023/09/08 06:57:14;;;;;;;11.68;9.80;;;21.80;99.90;;;;;;5031366;28;20038;-73
2023/09/08 06:59:39;;;;;;;12.43;10.07;;;22.10;99.90;;;;;;5013466;28;20523;-73
2023/09/08 07:02:06;;;;;;;13.10;10.02;;;22.30;99.90;;;;;;5031466;28;20041;-72
2023/09/08 07:04:32;;;;;;;12.43;10.57;;;22.50;99.90;;;;;;5013565;28;20092;-72
2023/09/08 07:06:58;;;;;;;14.00;10.65;;;22.50;99.90;;;;;;5031269;28;20041;-72
2023/09/08 07:09:24;;;;;;;10.75;9.13;;;22.60;99.90;;;;;;5031295;28;20064;-72
2023/09/08 07:11:50;;;;;;;14.23;10.18;;;22.80;99.90;;;;;;5030963;28;20041;-72
2023/09/08 07:14:15;;;;;;;13.20;10.25;;;22.90;99.90;;;;;;5013086;28;20043;-72
2023/09/08 07:16:41;;;;;;;15.18;10.10;;;22.70;99.90;;;;;;4996835;28;20053;-72
2023/09/08 07:19:06;;;;;;;11.23;9.75;;;23.00;99.90;;;;;;5047839;28;20098;-72
2023/09/08 07:21:32;;;;;;;12.90;9.52;;;23.20;99.90;;;;;;5051326;28;20033;-72
2023/09/08 07:23:58;;;;;;;12.00;9.25;;;23.30;99.90;;;;;;5051014;28;20032;-72
2023/09/08 07:26:24;;;;;;;11.35;9.70;;;23.50;99.90;;;;;;5051210;28;20091;-72
2023/09/08 07:28:49;;;;;;;11.80;10.45;;;23.70;99.90;;;;;;5032885;28;20145;-72
2023/09/08 07:31:15;;;;;;;13.95;9.90;;;23.70;99.90;;;;;;5051081;28;20052;-72
2023/09/08 07:33:40;;;;;;;12.38;9.93;;;24.00;99.90;;;;;;5033402;28;20047;-72
2023/09/08 07:36:07;;;;;;;10.60;9.05;;;24.10;99.90;;;;;;5033048;28;20489;-72
2023/09/08 07:38:34;;;;;;;11.07;9.93;;;24.40;99.90;;;;;;5033037;28;20044;-72
2023/09/08 07:41:01;;;;;;;11.32;9.15;;;24.50;99.90;;;;;;5032870;28;20072;-72
2023/09/08 07:43:27;;;;;;;24.40;10.60;;;24.60;99.90;;;;;;5050921;28;20523;-72
2023/09/08 07:45:52;;;;;;;12.23;8.60;;;24.60;99.90;;;;;;5050810;28;20049;-72
2023/09/08 07:48:18;;;;;;;13.18;9.75;;;24.70;99.90;;;;;;5050751;28;20451;-72
2023/09/08 07:50:44;;;;;;;11.63;9.82;;;24.80;99.90;;;;;;5051531;28;20411;-72
2023/09/08 07:53:10;;;;;;;11.18;9.27;;;24.80;99.90;;;;;;5054419;28;20451;-72
2023/09/08 07:55:36;;;;;;;11.48;9.18;;;24.90;99.90;;;;;;5054339;28;20048;-71
2023/09/08 07:58:03;;;;;;;10.50;8.90;;;24.90;99.90;;;;;;5054298;28;20040;-72
2023/09/08 08:00:29;;;;;;;10.95;9.02;;;24.90;99.90;;;;;;5054198;28;20037;-72
2023/09/08 08:02:56;;;;;;;11.63;8.77;;;25.00;99.90;;;;;;5054241;28;20090;-72
2023/09/08 08:05:22;;;;;;;10.15;8.52;;;25.30;99.90;;;;;;5054160;28;20056;-72
2023/09/08 08:07:48;;;;;;;10.90;9.45;;;25.20;99.90;;;;;;5054064;28;20032;-72
2023/09/08 08:10:14;;;;;;;14.05;9.27;;;25.30;99.90;;;;;;5054054;28;20094;-72
2023/09/08 08:12:41;;;;;;;11.10;7.78;;;25.60;99.70;;;;;;5054181;28;20040;-72
2023/09/08 08:15:09;;;;;;;9.77;7.72;;;25.60;99.90;;;;;;5048112;28;20495;-72
2023/09/08 08:17:35;;;;;;;9.35;8.45;;;25.90;99.90;;;;;;5030659;28;20044;-72
2023/09/08 08:20:09;;;;;;;11.48;8.57;;;25.90;99.60;;;;;;5016162;28;20033;-72
2023/09/08 08:22:35;;;;;;;10.38;8.57;;;26.00;99.20;;;;;;5015582;28;20438;-72
2023/09/08 08:25:01;;;;;;;9.68;7.85;;;26.00;98.90;;;;;;5033558;28;20522;-72
2023/09/08 08:27:27;;;;;;;8.95;8.05;;;26.10;98.80;;;;;;5023780;28;20041;-72
2023/09/08 08:29:57;;;;;;;9.45;7.18;;;26.10;98.10;;;;;;5016014;28;20037;-72
2023/09/08 08:32:23;;;;;;;9.40;7.00;;;26.30;98.00;;;;;;5033714;28;20041;-72
2023/09/08 08:34:48;;;;;;;7.78;6.97;;;26.60;97.80;;;;;;5033805;28;20048;-72
2023/09/08 08:37:14;;;;;;;10.68;7.35;;;26.70;97.50;;;;;;5033773;28;20033;-71
2023/09/08 08:39:39;;;;;;;12.20;7.18;;;26.80;96.10;;;;;;4999346;28;20096;-71
2023/09/08 08:42:09;;;;;;;9.25;6.80;;;26.90;95.60;;;;;;4999548;28;20473;-72
2023/09/08 08:44:36;;;;;;;10.82;7.28;;;27.00;94.70;;;;;;5015719;28;20045;-72
2023/09/08 08:47:02;;;;;;;8.75;7.85;;;27.00;95.10;;;;;;5033050;28;20051;-72
2023/09/08 08:49:31;;;;;;;8.23;6.65;;;27.10;95.50;;;;;;5032874;28;20037;-72
2023/09/08 08:51:58;;;;;;;9.45;7.43;;;27.00;94.50;;;;;;5033127;28;20038;-72
2023/09/08 08:54:24;;;;;;;8.55;7.00;;;27.00;94.80;;;;;;5033134;28;20084;-72
2023/09/08 08:56:51;;;;;;;7.13;6.40;;;27.20;94.30;;;;;;5033134;28;20045;-72
2023/09/08 08:59:16;;;;;;;10.80;7.00;;;27.10;94.70;;;;;;5032192;28;20044;-72
2023/09/08 09:01:43;;;;;;;10.30;7.05;;;27.20;94.80;;;;;;5032515;28;20050;-70
2023/09/08 09:04:09;;;;;;;11.60;6.95;;;27.30;94.40;;;;;;5033019;28;20044;-71
2023/09/08 09:06:35;;;;;;;6.95;6.05;;;27.20;94.50;;;;;;5032893;28;20037;-72
2023/09/08 09:09:04;;;;;;;8.82;7.25;;;27.40;94.80;;;;;;5032869;28;20408;-71
2023/09/08 09:11:31;;;;;;;9.07;6.18;;;27.30;93.70;;;;;;5032936;28;20425;-71
2023/09/08 09:13:58;;;;;;;12.48;8.05;;;27.40;94.50;;;;;;5015159;28;20037;-71
2023/09/08 09:16:24;;;;;;;7.30;6.45;;;27.30;94.70;;;;;;5032912;28;20041;-71
2023/09/08 09:18:56;;;;;;;10.32;6.68;;;27.30;94.20;;;;;;5032751;28;20040;-71
2023/09/08 09:21:22;;;;;;;13.27;7.45;;;27.30;95.20;;;;;;5032824;28;20405;-71
2023/09/08 09:23:47;;;;;;;8.40;6.63;;;27.10;95.80;;;;;;5032733;28;20579;-71
2023/09/08 09:26:24;;;;;;;8.63;6.43;;;27.20;95.80;;;;;;5014787;28;20049;-72
2023/09/08 09:28:52;;;;;;;7.68;6.40;;;27.30;95.50;;;;;;5014787;28;20081;-71
2023/09/08 09:31:18;;;;;;;8.23;5.88;;;27.20;95.70;;;;;;5014737;28;20505;-71
2023/09/08 09:33:44;;;;;;;7.85;6.47;;;27.40;96.30;;;;;;5014816;28;20045;-71
2023/09/08 09:36:19;;;;;;;9.77;6.13;;;27.10;95.40;;;;;;5031893;28;20443;-72
2023/09/08 09:38:44;;;;;;;6.72;5.70;;;27.10;95.70;;;;;;5014625;28;20040;-72
2023/09/08 09:41:10;;;;;;;9.82;5.68;;;27.30;95.60;;;;;;5014808;28;20041;-72
2023/09/08 09:43:36;;;;;;;11.98;6.07;;;27.20;95.60;;;;;;4998353;28;20497;-72
2023/09/08 09:46:02;;;;;;;8.80;6.22;;;27.20;95.30;;;;;;5032437;28;20042;-72
2023/09/08 09:48:28;;;;;;;11.68;7.18;;;27.30;95.70;;;;;;5032328;28;20068;-72
2023/09/08 09:50:53;;;;;;;10.93;6.40;;;27.10;96.00;;;;;;5014504;28;20041;-72
2023/09/08 09:53:20;;;;;;;8.65;6.30;;;27.00;95.80;;;;;;5032256;28;20139;-72
2023/09/08 09:55:46;;;;;;;8.07;6.10;;;27.00;96.10;;;;;;5032172;28;20096;-72
2023/09/08 09:58:14;;;;;;;10.27;6.25;;;27.00;95.90;;;;;;5032307;28;20417;-72
2023/09/08 10:00:47;;;;;;;11.95;6.22;;;27.00;96.30;;;;;;5032072;28;20113;-73
2023/09/08 10:03:13;;;;;;;6.55;5.88;;;27.20;95.70;;;;;;5014497;28;20071;-72
2023/09/08 10:05:39;;;;;;;8.98;5.18;;;27.20;95.80;;;;;;5014003;28;20128;-73
2023/09/08 10:08:05;;;;;;;10.35;6.18;;;27.30;95.60;;;;;;5014184;28;20124;-72
2023/09/08 10:10:34;;;;;;;8.40;6.18;;;27.30;94.90;;;;;;5031671;28;20455;-72
2023/09/08 10:13:03;;;;;;;10.75;6.07;;;27.40;94.50;;;;;;5014038;28;20121;-72
2023/09/08 10:15:31;;;;;;;8.35;5.72;;;27.30;93.70;;;;;;5031566;28;20037;-73
2023/09/08 10:17:57;;;;;;;5.85;5.25;;;27.20;94.90;;;;;;5031848;28;20136;-72
2023/09/08 10:20:24;;;;;;;8.48;5.72;;;27.30;94.70;;;;;;5031623;28;20354;-72
2023/09/08 10:22:58;;;;;;;7.80;5.30;;;27.30;94.20;;;;;;5013977;28;20553;-76
2023/09/08 10:25:26;;;;;;;8.85;5.68;;;27.50;93.00;;;;;;5013989;28;20076;-73
2023/09/08 10:27:54;;;;;;;11.88;5.13;;;27.70;93.00;;;;;;5013715;28;20042;-74
2023/09/08 10:30:21;;;;;;;12.23;5.15;;;27.70;92.70;;;;;;5014007;28;20497;-73
2023/09/08 10:32:49;;;;;;;7.80;5.28;;;27.80;92.00;;;;;;4997606;28;20045;-73
2023/09/08 10:35:17;;;;;;;7.85;5.00;;;28.00;91.40;;;;;;5031400;28;20064;-73
2023/09/08 10:37:43;;;;;;;6.20;5.07;;;28.00;91.50;;;;;;5014127;28;20049;-73
2023/09/08 10:40:33;;;;;;;7.88;5.82;;;28.00;91.20;;;;;;5013573;28;20033;-73
2023/09/08 10:43:09;;;;;;;6.95;4.38;;;28.10;90.80;;;;;;5013726;28;20041;-73
2023/09/08 10:45:35;;;;;;;6.25;5.47;;;28.30;90.60;;;;;;5013712;28;20413;-74
2023/09/08 10:48:01;;;;;;;5.88;4.85;;;28.00;90.20;;;;;;5013939;28;20412;-75
2023/09/08 10:50:33;;;;;;;6.28;5.35;;;28.20;90.80;;;;;;5013198;28;20034;-75
2023/09/08 10:53:17;;;;;;;5.72;4.55;;;28.30;90.00;;;;;;5005803;28;20690;-75
2023/09/08 10:55:50;;;;;;;7.88;5.10;;;28.30;88.00;;;;;;5009852;28;20096;-75
2023/09/08 10:58:20;;;;;;;5.50;5.00;;;28.30;88.50;;;;;;5031599;28;20044;-75
2023/09/08 11:00:51;;;;;;;8.48;4.80;;;28.40;89.00;;;;;;5028969;28;20052;-75
2023/09/08 11:03:27;;;;;;;6.95;5.30;;;28.30;89.20;;;;;;5030969;28;20518;-75
2023/09/08 11:05:53;;;;;;;8.43;5.32;;;28.30;85.50;;;;;;5028470;23;20129;-71
2023/09/08 11:08:19;;;;;;;7.78;4.55;;;28.30;84.80;;;;;;5011242;28;20255;-71
2023/09/08 11:10:45;;;;;;;7.63;5.15;;;28.40;85.40;;;;;;5009714;28;20038;-70
2023/09/08 11:13:10;;;;;;;5.53;4.55;;;28.40;82.70;;;;;;5011199;28;20121;-70
2023/09/08 11:15:37;;;;;;;7.07;4.78;;;28.30;82.10;;;;;;5011400;28;20176;-70
2023/09/08 11:18:07;;;;;;;8.40;4.97;;;28.30;82.10;;;;;;5011747;28;20038;-70
2023/09/08 11:20:32;;;;;;;7.85;5.15;;;28.30;81.20;;;;;;5011395;28;20543;-69
2023/09/08 11:22:59;;;;;;;6.75;4.47;;;28.20;78.00;;;;;;5011659;28;20121;-70
2023/09/08 11:25:25;;;;;;;7.85;5.05;;;28.20;78.20;;;;;;4995645;28;20034;-70
2023/09/08 11:27:50;;;;;;;9.52;4.50;;;28.20;76.20;;;;;;5015161;28;20192;-69
2023/09/08 11:30:17;;;;;;;8.77;4.53;;;28.20;75.70;;;;;;4997460;28;20053;-70
2023/09/08 11:32:43;;;;;;;5.97;4.95;;;28.20;75.50;;;;;;5015200;28;20048;-70
2023/09/08 11:35:10;;;;;;;6.65;4.85;;;28.30;74.30;;;;;;4997422;28;20116;-70
2023/09/08 11:37:40;;;;;;;8.05;5.00;;;28.40;78.10;;;;;;5014954;28;20038;-70
2023/09/08 11:40:09;;;;;;;4.93;4.13;;;28.40;76.60;;;;;;5014896;28;20037;-69
2023/09/08 11:42:35;;;;;;;7.63;4.78;;;28.40;73.40;;;;;;5014898;28;20038;-70
2023/09/08 11:45:03;;;;;;;6.38;4.20;;;28.40;70.70;;;;;;4981057;28;20445;-70
2023/09/08 11:47:29;;;;;;;7.90;4.22;;;28.40;72.30;;;;;;5014874;28;20449;-70
2023/09/08 11:49:55;;;;;;;4.82;4.38;;;28.50;73.10;;;;;;5014644;28;20494;-69
2023/09/08 11:52:24;;;;;;;7.20;4.40;;;28.50;72.30;;;;;;5014874;28;20046;-70
2023/09/08 11:54:51;;;;;;;6.47;4.30;;;28.60;70.50;;;;;;4997277;28;20042;-70
2023/09/08 11:57:17;;;;;;;5.28;3.95;;;28.60;70.70;;;;;;5014604;28;20042;-71
2023/09/08 11:59:45;;;;;;;4.38;3.83;;;28.70;69.10;;;;;;4996924;28;20507;-73
2023/09/08 12:02:11;;;;;;;5.28;3.63;;;29.00;69.20;;;;;;5013811;28;20119;-71
2023/09/08 12:04:37;;;;;;;5.47;4.00;;;29.00;66.90;;;;;;5014770;28;20045;-71
2023/09/08 12:07:03;;;;;;;6.47;4.35;;;29.00;66.30;;;;;;5014395;28;20037;-71
2023/09/08 12:09:28;;;;;;;5.70;4.40;;;29.20;66.90;;;;;;5014246;28;20046;-72
2023/09/08 12:11:54;;;;;;;5.72;4.20;;;29.20;66.00;;;;;;5014503;28;20038;-71
2023/09/08 12:14:20;;;;;;;5.10;3.60;;;29.20;65.10;;;;;;5014453;28;20053;-72
2023/09/08 12:16:46;;;;;;;7.47;4.13;;;29.30;65.10;;;;;;5014227;28;20052;-72
2023/09/08 12:19:31;;;;;;;8.57;4.97;;;29.20;67.30;;;;;;5014229;28;20080;-73
2023/09/08 12:22:00;;;;;;;6.78;4.35;;;29.20;65.40;;;;;;5014365;28;20038;-71
2023/09/08 12:24:50;;;;;;;9.23;4.68;;;29.30;65.60;;;;;;5014424;28;20037;-71
2023/09/08 12:27:17;;;;;;;6.70;4.35;;;29.20;64.20;;;;;;5014230;28;20046;-71
2023/09/08 12:29:52;;;;;;;5.95;3.80;;;29.30;64.70;;;;;;5013283;28;20078;-71
2023/09/08 12:32:18;;;;;;;6.57;4.30;;;29.30;63.70;;;;;;4994265;28;20045;-71